Time;durP1;ratioP1;P1;durP2;ratioP2;P2;SDS_P1;SDS_P2;PMS_P1;PMS_P2;Temp;Humidity;BMP_temperature;BMP_pressure;BME280_temperature;BME280_humidity;BME280_pressure;Samples;Min_cycle;Max_cycle;Signal;HPM_P1;HPM_P2
2023/09/18 00:02:19;;;;;;;0.10;0.10;;;;;;;17.82;80.48;99535.63;7359174;19;20050;-59
2023/09/18 00:04:44;;;;;;;0.10;0.10;;;;;;;17.81;80.82;99535.75;7356041;19;20471;-59
2023/09/18 00:07:10;;;;;;;0.10;0.10;;;;;;;17.79;81.10;99524.44;7360887;19;20018;-59
2023/09/18 00:09:36;;;;;;;0.10;0.10;;;;;;;17.76;81.16;99517.59;7361876;19;19999;-59
2023/09/18 00:12:01;;;;;;;0.10;0.10;;;;;;;17.77;80.61;99521.06;7352550;19;20057;-60
2023/09/18 00:14:27;;;;;;;0.10;0.10;;;;;;;17.76;80.95;99519.38;7361400;19;20556;-59
2023/09/18 00:16:52;;;;;;;0.00;0.00;;;;;;;17.75;80.87;99521.19;7358187;19;20286;-59
2023/09/18 00:19:18;;;;;;;0.20;0.20;;;;;;;17.60;81.13;99493.19;7359479;19;20029;-59
2023/09/18 00:21:43;;;;;;;0.10;0.10;;;;;;;17.74;81.10;99519.50;7362104;19;20015;-59
2023/09/18 00:24:09;;;;;;;0.10;0.10;;;;;;;17.56;80.81;99484.66;7362264;19;21245;-59
2023/09/18 00:26:34;;;;;;;0.10;0.10;;;;;;;17.71;80.71;99517.03;7358861;19;20038;-59
2023/09/18 00:28:59;;;;;;;0.10;0.10;;;;;;;17.70;81.14;99512.72;7362807;19;20017;-59
2023/09/18 00:31:25;;;;;;;0.10;0.10;;;;;;;17.69;80.69;99508.41;7357166;19;20010;-59
2023/09/18 00:33:50;;;;;;;0.10;0.10;;;;;;;17.67;80.79;99507.63;7367556;19;20017;-60
2023/09/18 00:36:16;;;;;;;0.10;0.10;;;;;;;17.66;80.82;99503.31;7360882;19;20017;-60
2023/09/18 00:38:41;;;;;;;0.10;0.10;;;;;;;17.65;80.83;99501.63;7361851;19;20015;-60
2023/09/18 00:41:06;;;;;;;0.10;0.10;;;;;;;17.65;81.06;99499.00;7359018;19;20032;-59
2023/09/18 00:43:32;;;;;;;0.10;0.10;;;;;;;17.65;80.93;99501.63;7359027;19;20007;-59
2023/09/18 00:45:58;;;;;;;0.10;0.10;;;;;;;17.63;81.13;99500.88;7359602;19;20011;-60
2023/09/18 00:48:23;;;;;;;0.10;0.10;;;;;;;17.63;80.91;99498.25;7361353;19;20721;-59
2023/09/18 00:50:49;;;;;;;0.10;0.10;;;;;;;17.61;80.76;99492.25;7359408;19;20012;-60
2023/09/18 00:53:19;;;;;;;0.03;0.03;;;;;;;17.60;80.98;99494.03;7362343;19;20517;-60
2023/09/18 00:55:45;;;;;;;0.10;0.10;;;;;;;17.58;81.09;99484.53;7360001;19;20027;-59
2023/09/18 00:58:10;;;;;;;0.10;0.10;;;;;;;17.56;81.16;99475.88;7358876;19;20018;-59
2023/09/18 01:00:36;;;;;;;0.10;0.10;;;;;;;17.54;80.86;99473.38;7358240;19;20901;-59
2023/09/18 01:03:03;;;;;;;0.10;0.10;;;;;;;17.53;81.39;99471.66;7364058;19;20010;-59
2023/09/18 01:05:30;;;;;;;;;;;;;;;17.57;79.94;99465.22;7364287;19;20035;-59
2023/09/18 01:07:55;;;;;;;0.10;0.10;;;;;;;17.52;81.10;99463.84;7369673;19;20477;-60
2023/09/18 01:10:24;;;;;;;0.10;0.10;;;;;;;17.53;81.00;99465.53;7368707;19;20015;-59
2023/09/18 01:13:05;;;;;;;0.10;0.10;;;;;;;17.51;80.50;99459.53;7365848;19;20518;-59
2023/09/18 01:15:36;;;;;;;0.10;0.10;;;;;;;17.49;81.20;99458.81;7366065;19;20450;-59
2023/09/18 01:18:03;;;;;;;0.10;0.10;;;;;;;17.45;80.91;99462.63;7368089;19;20035;-59
2023/09/18 01:20:28;;;;;;;0.17;0.17;;;;;;;17.42;81.24;99446.97;7363259;19;21729;-59
2023/09/18 01:22:54;;;;;;;0.10;0.10;;;;;;;17.42;80.90;99446.97;7373156;19;20085;-60
2023/09/18 01:25:19;;;;;;;0.10;0.10;;;;;;;17.40;81.14;99443.63;7366750;19;20088;-60
2023/09/18 01:27:44;;;;;;;0.10;0.10;;;;;;;17.34;80.83;99424.63;7365528;19;20029;-59
2023/09/18 01:30:10;;;;;;;0.10;0.10;;;;;;;17.38;81.24;99434.00;7367651;19;20449;-59
2023/09/18 01:32:38;;;;;;;0.10;0.10;;;;;;;17.24;81.12;99413.03;7359551;19;20060;-59
2023/09/18 01:35:07;;;;;;;0.10;0.10;;;;;;;17.35;81.43;99434.22;7368618;19;20006;-59
2023/09/18 01:37:35;;;;;;;0.10;0.10;;;;;;;17.34;81.58;99421.16;7361693;19;20014;-60
2023/09/18 01:40:06;;;;;;;0.10;0.10;;;;;;;17.24;81.52;99396.38;7368516;19;20343;-59
2023/09/18 01:42:32;;;;;;;0.10;0.10;;;;;;;17.31;81.03;99409.00;7355661;19;20019;-59
2023/09/18 01:44:57;;;;;;;0.10;0.10;;;;;;;17.31;81.01;99414.28;7367127;19;20019;-59
2023/09/18 01:47:23;;;;;;;0.10;0.10;;;;;;;17.29;81.54;99410.94;7366792;19;20368;-60
2023/09/18 01:49:49;;;;;;;0.10;0.10;;;;;;;17.28;81.15;99409.22;7368810;19;20014;-59
2023/09/18 01:52:14;;;;;;;0.10;0.10;;;;;;;17.27;81.15;99407.53;7348016;19;20014;-60
2023/09/18 01:54:40;;;;;;;0.10;0.10;;;;;;;17.24;81.10;99397.22;7361401;19;20017;-60
2023/09/18 01:57:07;;;;;;;0.10;0.10;;;;;;;17.19;81.05;99393.22;7363348;19;20345;-59
2023/09/18 01:59:33;;;;;;;0.10;0.10;;;;;;;17.25;81.03;99398.91;7356930;19;20006;-60
2023/09/18 02:01:59;;;;;;;0.10;0.10;;;;;;;17.24;81.38;99391.94;7361934;19;20010;-59
2023/09/18 02:04:25;;;;;;;0.10;0.10;;;;;;;17.24;81.48;99397.22;7367687;19;20017;-60
2023/09/18 02:06:51;;;;;;;0.10;0.10;;;;;;;17.24;81.23;99397.22;7363884;19;20015;-59
2023/09/18 02:09:17;;;;;;;0.10;0.10;;;;;;;17.23;80.84;99395.50;7366040;19;20850;-59
2023/09/18 02:11:47;;;;;;;0.10;0.10;;;;;;;17.23;81.05;99392.88;7356661;19;20030;-59
2023/09/18 02:14:12;;;;;;;0.10;0.10;;;;;;;17.21;80.77;99389.50;7364179;19;20490;-59
2023/09/18 02:16:46;;;;;;;0.10;0.10;;;;;;;17.21;80.93;99386.03;7362109;19;20010;-59
2023/09/18 02:19:13;;;;;;;0.10;0.10;;;;;;;17.21;80.77;99386.88;7360121;19;20380;-60
2023/09/18 02:21:40;;;;;;;0.10;0.10;;;;;;;17.19;80.83;99383.50;7365458;19;20074;-58
2023/09/18 02:24:06;;;;;;;0.10;0.10;;;;;;;17.18;81.04;99376.53;7369019;19;20070;-59
2023/09/18 02:26:31;;;;;;;0.10;0.10;;;;;;;17.18;80.80;99376.53;7366603;19;20530;-59
2023/09/18 02:29:00;;;;;;;0.10;0.10;;;;;;;17.19;81.14;99367.69;7362799;19;20006;-59
2023/09/18 02:31:25;;;;;;;0.10;0.10;;;;;;;17.17;81.01;99359.00;7358740;19;20010;-59
2023/09/18 02:33:50;;;;;;;0.10;0.10;;;;;;;17.16;81.04;99359.97;7366063;19;20006;-59
2023/09/18 02:36:16;;;;;;;0.10;0.10;;;;;;;17.15;81.24;99345.09;7362218;19;20039;-60
2023/09/18 02:38:42;;;;;;;0.10;0.10;;;;;;;17.15;81.13;99347.75;7360074;19;20446;-59
2023/09/18 02:41:08;;;;;;;0.10;0.10;;;;;;;17.15;81.16;99355.66;7359888;19;20014;-59
2023/09/18 02:43:33;;;;;;;0.00;0.00;;;;;;;17.14;80.96;99343.44;7365736;19;20011;-59
2023/09/18 02:45:59;;;;;;;0.10;0.10;;;;;;;17.15;80.96;99349.53;7360204;19;20604;-59
2023/09/18 02:48:24;;;;;;;0.10;0.10;;;;;;;17.15;80.84;99349.53;7365235;19;20006;-59
2023/09/18 02:50:49;;;;;;;0.05;0.05;;;;;;;17.14;81.23;99356.63;7369134;19;20022;-59
2023/09/18 02:53:23;;;;;;;0.10;0.10;;;;;;;17.05;81.02;99333.53;7365017;19;20011;-59
2023/09/18 02:55:51;;;;;;;0.10;0.10;;;;;;;17.15;81.09;99347.75;7364218;19;21275;-60
2023/09/18 02:58:17;;;;;;;0.10;0.10;;;;;;;17.12;81.03;99345.31;7360434;19;20021;-60
2023/09/18 03:00:44;;;;;;;0.10;0.10;;;;;;;17.12;80.57;99346.16;7370342;19;20025;-59
2023/09/18 03:03:10;;;;;;;0.08;0.08;;;;;;;17.14;80.60;99347.88;7367299;19;20092;-59
2023/09/18 03:05:35;;;;;;;0.10;0.10;;;;;;;17.13;80.61;99347.00;7368578;19;20086;-59
2023/09/18 03:08:01;;;;;;;0.10;0.10;;;;;;;16.67;80.92;99276.38;7363671;19;20006;-59
2023/09/18 03:10:26;;;;;;;0.10;0.10;;;;;;;17.12;81.04;99347.94;7352073;19;20051;-59
2023/09/18 03:12:52;;;;;;;0.10;0.10;;;;;;;17.03;80.89;99333.66;7359697;19;20017;-59
2023/09/18 03:15:17;;;;;;;0.10;0.10;;;;;;;17.09;80.84;99342.91;7365221;19;20449;-59
2023/09/18 03:17:42;;;;;;;0.10;0.10;;;;;;;17.11;80.74;99343.63;7363220;19;20014;-60
2023/09/18 03:20:08;;;;;;;0.10;0.10;;;;;;;17.08;81.03;99338.56;7334367;19;20380;-59
2023/09/18 03:22:34;;;;;;;0.10;0.10;;;;;;;17.08;80.90;99328.00;7361103;19;20009;-59
2023/09/18 03:25:00;;;;;;;0.10;0.10;;;;;;;17.08;80.77;99341.19;7363019;19;20408;-59
2023/09/18 03:27:28;;;;;;;0.10;0.10;;;;;;;17.09;80.72;99345.56;7363207;19;20801;-59
2023/09/18 03:29:54;;;;;;;0.10;0.10;;;;;;;17.08;80.68;99338.56;7366299;19;20018;-59
2023/09/18 03:32:20;;;;;;;0.10;0.10;;;;;;;17.04;80.42;99331.84;7361283;19;20023;-59
2023/09/18 03:34:45;;;;;;;0.10;0.10;;;;;;;17.06;80.49;99336.03;7364113;19;20018;-59
2023/09/18 03:37:11;;;;;;;0.05;0.05;;;;;;;17.05;80.72;99336.16;7359586;19;21494;-59
2023/09/18 03:39:36;;;;;;;0.00;0.00;;;;;;;17.03;80.80;99352.09;7369012;19;20050;-59
2023/09/18 03:42:02;;;;;;;0.10;0.10;;;;;;;17.02;80.56;99344.28;7371173;19;20019;-60
2023/09/18 03:44:27;;;;;;;0.10;0.10;;;;;;;16.88;80.80;99321.53;7353885;19;20011;-60
2023/09/18 03:46:53;;;;;;;0.10;0.10;;;;;;;16.98;80.29;99342.81;7365111;19;20017;-60
2023/09/18 03:49:18;;;;;;;0.10;0.10;;;;;;;16.96;80.62;99350.84;7357261;19;20003;-59
2023/09/18 03:51:44;;;;;;;0.10;0.10;;;;;;;16.90;80.21;99329.34;7361113;19;20026;-60
2023/09/18 03:54:09;;;;;;;0.10;0.10;;;;;;;16.85;80.68;99327.88;7366060;19;20007;-59
2023/09/18 03:56:35;;;;;;;0.10;0.10;;;;;;;16.79;80.32;99323.03;7364343;19;20015;-59
2023/09/18 03:59:01;;;;;;;0.10;0.10;;;;;;;16.84;80.50;99328.81;7362165;19;20019;-59
2023/09/18 04:01:27;;;;;;;0.13;0.13;;;;;;;16.76;80.77;99327.66;7362996;19;20475;-59
2023/09/18 04:03:53;;;;;;;0.10;0.10;;;;;;;16.82;80.67;99340.41;7367063;19;20007;-60
2023/09/18 04:06:20;;;;;;;0.10;0.10;;;;;;;16.77;80.73;99330.19;7361995;19;20015;-59
2023/09/18 04:08:46;;;;;;;0.10;0.10;;;;;;;16.79;80.89;99338.00;7359186;19;20917;-59
2023/09/18 04:11:11;;;;;;;0.10;0.10;;;;;;;16.76;80.58;99338.22;7367077;19;20019;-59
2023/09/18 04:13:37;;;;;;;0.10;0.10;;;;;;;16.73;80.96;99328.75;7360221;19;20055;-59
2023/09/18 04:16:04;;;;;;;0.10;0.10;;;;;;;16.73;80.61;99338.44;7363680;19;20014;-59
2023/09/18 04:18:29;;;;;;;0.10;0.10;;;;;;;16.58;80.72;99319.22;7367764;19;20012;-59
2023/09/18 04:20:54;;;;;;;0.10;0.10;;;;;;;16.67;80.26;99334.38;7366532;19;20031;-59
2023/09/18 04:23:24;;;;;;;0.10;0.10;;;;;;;16.63;80.24;99338.22;7358582;19;20037;-60
2023/09/18 04:25:50;;;;;;;0.10;0.10;;;;;;;16.60;79.90;99333.13;7363608;19;20006;-59
2023/09/18 04:28:21;;;;;;;0.10;0.10;;;;;;;16.58;79.69;99335.03;7361857;19;20018;-60
2023/09/18 04:30:46;;;;;;;0.10;0.10;;;;;;;16.51;80.00;99325.84;7361270;19;20010;-59
2023/09/18 04:33:16;;;;;;;0.10;0.10;;;;;;;16.45;79.38;99326.28;7359791;19;20046;-59
2023/09/18 04:35:41;;;;;;;0.10;0.10;;;;;;;16.40;79.78;99329.22;7358335;19;20010;-59
2023/09/18 04:38:10;;;;;;;0.05;0.05;;;;;;;16.34;80.14;99327.03;7360502;19;20025;-59
2023/09/18 04:40:36;;;;;;;0.10;0.10;;;;;;;16.29;79.73;99331.78;7364134;19;20442;-59
2023/09/18 04:43:04;;;;;;;0.10;0.10;;;;;;;16.14;79.57;99304.69;7365795;19;20472;-59
2023/09/18 04:45:30;;;;;;;0.10;0.10;;;;;;;16.17;79.49;99330.81;7368603;19;20613;-59
2023/09/18 04:47:56;;;;;;;0.10;0.10;;;;;;;16.12;79.62;99322.38;7370434;19;20035;-59
2023/09/18 04:50:22;;;;;;;0.10;0.10;;;;;;;16.07;79.90;99319.22;7372573;19;20010;-59
2023/09/18 04:52:48;;;;;;;0.10;0.10;;;;;;;16.01;79.22;99325.72;7376866;19;20042;-59
2023/09/18 04:55:14;;;;;;;0.10;0.10;;;;;;;15.96;79.67;99317.28;7365746;19;20763;-59
2023/09/18 04:57:39;;;;;;;0.05;0.05;;;;;;;15.92;78.96;99314.97;7367422;19;20018;-59
2023/09/18 05:00:12;;;;;;;0.00;0.00;;;;;;;15.85;79.40;99313.69;7367546;19;20013;-59
2023/09/18 05:02:38;;;;;;;0.10;0.10;;;;;;;15.81;80.01;99318.28;7358660;19;20011;-59
2023/09/18 05:05:04;;;;;;;0.10;0.10;;;;;;;15.77;79.79;99316.84;7367570;19;20014;-59
2023/09/18 05:07:29;;;;;;;0.00;0.00;;;;;;;15.72;80.29;99319.78;7365979;19;20351;-60
2023/09/18 05:09:54;;;;;;;0.10;0.10;;;;;;;15.68;80.09;99318.28;7365700;19;20104;-59
2023/09/18 05:12:20;;;;;;;0.10;0.10;;;;;;;15.64;79.05;99314.16;7364405;19;20056;-59
2023/09/18 05:14:45;;;;;;;0.10;0.10;;;;;;;15.60;78.92;99317.91;7365268;19;20010;-59
2023/09/18 05:17:15;;;;;;;0.10;0.10;;;;;;;15.57;79.32;99318.13;7364646;19;20027;-59
2023/09/18 05:19:41;;;;;;;0.10;0.10;;;;;;;15.51;79.82;99321.13;7361107;19;20363;-59
2023/09/18 05:22:07;;;;;;;0.10;0.10;;;;;;;15.47;79.65;99322.28;7366331;19;20042;-59
2023/09/18 05:24:33;;;;;;;0.00;0.00;;;;;;;15.44;79.41;99315.41;7367210;19;20034;-59
2023/09/18 05:26:58;;;;;;;0.08;0.08;;;;;;;15.41;79.33;99317.41;7367667;19;20011;-59
2023/09/18 05:29:24;;;;;;;0.10;0.10;;;;;;;15.25;79.58;99299.97;7366989;19;20017;-60
2023/09/18 05:31:49;;;;;;;0.00;0.00;;;;;;;15.34;79.49;99318.75;7367933;19;20010;-59
2023/09/18 05:34:15;;;;;;;0.10;0.10;;;;;;;15.31;79.72;99318.00;7365544;19;20006;-59
2023/09/18 05:36:40;;;;;;;0.10;0.10;;;;;;;15.20;79.15;99302.06;7367474;19;20491;-59
2023/09/18 05:39:11;;;;;;;0.10;0.10;;;;;;;15.30;78.96;99321.56;7360482;19;20010;-59
2023/09/18 05:41:37;;;;;;;0.08;0.08;;;;;;;15.27;79.46;99324.41;7370356;19;20015;-59
2023/09/18 05:44:04;;;;;;;0.05;0.05;;;;;;;15.25;79.11;99320.16;7366659;19;20010;-59
2023/09/18 05:46:30;;;;;;;0.10;0.10;;;;;;;15.23;79.42;99319.44;7367073;19;20018;-59
2023/09/18 05:48:57;;;;;;;0.10;0.10;;;;;;;15.10;79.30;99306.22;7366601;19;20027;-59
2023/09/18 05:51:22;;;;;;;0.10;0.10;;;;;;;15.15;79.40;99313.81;7364561;19;20522;-59
2023/09/18 05:53:48;;;;;;;0.10;0.10;;;;;;;15.17;78.90;99320.69;7366714;19;20002;-59
2023/09/18 05:56:14;;;;;;;0.10;0.10;;;;;;;15.14;79.28;99322.66;7360833;19;20373;-59
2023/09/18 05:58:39;;;;;;;0.10;0.10;;;;;;;15.11;79.43;99323.69;7362883;19;20429;-59
2023/09/18 06:01:07;;;;;;;0.10;0.10;;;;;;;15.10;79.62;99326.41;7365442;19;20481;-59
2023/09/18 06:03:35;;;;;;;0.10;0.10;;;;;;;15.05;80.00;99324.06;7366600;19;20010;-60
2023/09/18 06:06:04;;;;;;;0.10;0.10;;;;;;;15.01;80.27;99318.19;7367166;19;20053;-58
2023/09/18 06:08:33;;;;;;;0.00;0.00;;;;;;;15.01;79.70;99327.84;7370027;19;20027;-60
2023/09/18 06:10:58;;;;;;;0.10;0.10;;;;;;;15.00;79.52;99336.66;7367471;19;20085;-59
2023/09/18 06:13:25;;;;;;;0.10;0.10;;;;;;;14.99;79.56;99327.09;7366950;19;20943;-60
2023/09/18 06:15:52;;;;;;;0.00;0.00;;;;;;;14.99;79.48;99324.47;7362915;19;20014;-59
2023/09/18 06:18:20;;;;;;;0.10;0.10;;;;;;;14.98;79.68;99328.03;7363463;19;20023;-59
2023/09/18 06:20:46;;;;;;;0.10;0.10;;;;;;;14.99;79.54;99334.97;7365175;19;20015;-59
2023/09/18 06:23:12;;;;;;;0.10;0.10;;;;;;;14.98;79.40;99333.28;7365971;19;20014;-59
2023/09/18 06:25:38;;;;;;;0.10;0.10;;;;;;;14.94;79.52;99332.63;7365496;19;20098;-60
2023/09/18 06:28:04;;;;;;;0.10;0.10;;;;;;;14.98;79.64;99338.56;7367545;19;20576;-59
2023/09/18 06:30:30;;;;;;;0.10;0.10;;;;;;;14.99;79.58;99345.50;7366943;19;20018;-59
2023/09/18 06:32:56;;;;;;;0.10;0.10;;;;;;;14.97;79.42;99353.47;7366192;19;20010;-59
2023/09/18 06:35:22;;;;;;;0.10;0.10;;;;;;;14.91;79.72;99338.09;7366588;19;20030;-59
2023/09/18 06:37:47;;;;;;;0.10;0.10;;;;;;;15.00;79.33;99360.31;7359097;19;20011;-60
2023/09/18 06:40:13;;;;;;;0.10;0.10;;;;;;;14.90;79.39;99346.94;7360725;19;20490;-59
2023/09/18 06:42:39;;;;;;;0.10;0.10;;;;;;;15.00;79.42;99355.94;7359375;19;20015;-59
2023/09/18 06:45:06;;;;;;;0.10;0.10;;;;;;;15.01;79.46;99359.41;7366560;19;20074;-59
2023/09/18 06:47:32;;;;;;;0.10;0.10;;;;;;;15.02;79.17;99363.72;7362453;19;20014;-59
2023/09/18 06:49:59;;;;;;;0.10;0.10;;;;;;;15.02;79.27;99366.34;7365286;19;20028;-59
2023/09/18 06:52:26;;;;;;;0.10;0.10;;;;;;;14.98;78.88;99354.31;7363182;19;20027;-59
2023/09/18 06:54:52;;;;;;;0.00;0.00;;;;;;;15.01;79.25;99365.50;7367042;19;20014;-59
2023/09/18 06:57:17;;;;;;;0.10;0.10;;;;;;;15.05;79.11;99363.50;7370560;19;20018;-59
2023/09/18 06:59:43;;;;;;;0.10;0.10;;;;;;;15.03;79.01;99368.88;7363860;19;20006;-59
2023/09/18 07:02:09;;;;;;;0.10;0.10;;;;;;;15.05;79.37;99379.28;7365872;19;20007;-59
2023/09/18 07:04:35;;;;;;;0.00;0.00;;;;;;;15.05;79.05;99381.91;7369555;19;20042;-59
2023/09/18 07:07:00;;;;;;;0.10;0.10;;;;;;;15.05;78.86;99385.41;7372209;19;20853;-59
2023/09/18 07:09:25;;;;;;;0.10;0.10;;;;;;;15.07;78.81;99384.47;7364634;19;20125;-60
2023/09/18 07:11:51;;;;;;;0.10;0.10;;;;;;;15.06;79.33;99381.00;7365102;19;20038;-59
2023/09/18 07:14:17;;;;;;;0.00;0.00;;;;;;;15.08;78.95;99381.72;7365122;19;19998;-59
2023/09/18 07:16:43;;;;;;;0.10;0.10;;;;;;;15.08;79.02;99383.50;7366375;19;20006;-59
2023/09/18 07:19:11;;;;;;;0.10;0.10;;;;;;;14.98;78.85;99364.84;7349812;19;20034;-60
2023/09/18 07:21:37;;;;;;;0.10;0.10;;;;;;;15.09;79.22;99378.16;7362349;19;20349;-59
2023/09/18 07:24:03;;;;;;;0.10;0.10;;;;;;;15.08;78.70;99381.72;7366674;19;20006;-59
2023/09/18 07:26:29;;;;;;;0.10;0.10;;;;;;;15.09;78.73;99378.16;7364383;19;20692;-59
2023/09/18 07:28:54;;;;;;;0.10;0.10;;;;;;;15.08;78.30;99388.78;7366583;19;20066;-59
2023/09/18 07:31:19;;;;;;;0.10;0.10;;;;;;;15.07;78.55;99393.19;7365594;19;20014;-59
2023/09/18 07:33:45;;;;;;;0.10;0.10;;;;;;;15.06;78.70;99388.88;7364513;19;20103;-60
2023/09/18 07:36:10;;;;;;;0.10;0.10;;;;;;;15.02;78.08;99382.97;7359459;19;20002;-58
2023/09/18 07:38:37;;;;;;;0.10;0.10;;;;;;;15.06;78.54;99388.88;7361673;19;20023;-59
2023/09/18 07:41:02;;;;;;;0.10;0.10;;;;;;;15.13;78.72;99390.16;7354737;19;19995;-59
2023/09/18 07:43:28;;;;;;;0.10;0.10;;;;;;;15.16;78.76;99400.50;7358779;19;20013;-59
2023/09/18 07:45:54;;;;;;;0.10;0.10;;;;;;;15.20;78.57;99394.09;7332184;19;20365;-60
2023/09/18 07:48:21;;;;;;;0.10;0.10;;;;;;;15.21;78.60;99390.56;7367861;19;20009;-59
2023/09/18 07:50:49;;;;;;;0.10;0.10;;;;;;;15.26;78.03;99408.69;7362678;19;20029;-58
2023/09/18 07:53:15;;;;;;;0.10;0.10;;;;;;;15.26;77.67;99406.88;7361092;19;20023;-59
2023/09/18 07:55:40;;;;;;;0.10;0.10;;;;;;;15.27;77.51;99415.63;7359943;19;20561;-59
2023/09/18 07:58:06;;;;;;;0.10;0.10;;;;;;;15.29;77.38;99411.94;7363535;19;20011;-59
2023/09/18 08:00:33;;;;;;;0.10;0.10;;;;;;;15.32;77.41;99414.38;7359446;19;20018;-60
2023/09/18 08:03:00;;;;;;;0.10;0.10;;;;;;;15.35;77.23;99415.13;7364246;19;20018;-58
2023/09/18 08:05:29;;;;;;;0.10;0.10;;;;;;;15.23;77.39;99386.03;7363602;19;20014;-59
2023/09/18 08:07:59;;;;;;;0.10;0.10;;;;;;;15.25;77.30;99402.53;7365688;19;20006;-60
2023/09/18 08:10:25;;;;;;;0.10;0.10;;;;;;;15.38;76.88;99435.97;7366017;19;20671;-59
2023/09/18 08:12:52;;;;;;;0.10;0.10;;;;;;;15.39;76.58;99421.88;7359161;19;20890;-60
2023/09/18 08:15:19;;;;;;;0.10;0.10;;;;;;;15.41;76.77;99417.34;7366645;19;20018;-59
2023/09/18 08:17:46;;;;;;;0.10;0.10;;;;;;;15.45;76.45;99438.13;7367183;19;20019;-60
2023/09/18 08:20:12;;;;;;;0.10;0.10;;;;;;;15.51;76.90;99436.88;7371757;19;20038;-59
2023/09/18 08:22:38;;;;;;;0.10;0.10;;;;;;;15.60;76.34;99435.47;7370274;19;20010;-59
2023/09/18 08:25:05;;;;;;;0.10;0.10;;;;;;;15.68;76.38;99452.50;7371028;19;20013;-59
2023/09/18 08:27:30;;;;;;;0.10;0.10;;;;;;;15.78;76.17;99437.81;7366793;19;20019;-59
2023/09/18 08:29:56;;;;;;;0.10;0.10;;;;;;;15.88;76.11;99445.13;7367746;19;20019;-60
2023/09/18 08:32:21;;;;;;;0.10;0.10;;;;;;;15.97;76.02;99452.44;7369702;19;20010;-59
2023/09/18 08:34:47;;;;;;;0.10;0.10;;;;;;;16.10;75.32;99455.94;7366564;19;20011;-59
2023/09/18 08:37:12;;;;;;;0.10;0.10;;;;;;;16.20;75.43;99457.03;7373462;19;20094;-59
2023/09/18 08:39:38;;;;;;;0.10;0.10;;;;;;;16.30;74.60;99462.53;7364397;19;20014;-59
2023/09/18 08:42:07;;;;;;;0.10;0.10;;;;;;;16.45;74.36;99461.50;7371735;19;20010;-59
2023/09/18 08:44:32;;;;;;;0.10;0.10;;;;;;;16.59;74.25;99473.78;7368403;19;20014;-59
2023/09/18 08:46:58;;;;;;;0.10;0.10;;;;;;;16.71;73.70;99457.16;7369545;19;20019;-59
2023/09/18 08:49:24;;;;;;;0.10;0.10;;;;;;;16.85;73.02;99459.69;7369968;19;20013;-60
2023/09/18 08:51:55;;;;;;;0.15;0.15;;;;;;;17.01;74.61;99454.22;7364370;19;20939;-60
2023/09/18 08:54:21;;;;;;;0.10;0.10;;;;;;;17.14;72.56;99454.22;7373331;19;20010;-59
2023/09/18 08:56:47;;;;;;;0.10;0.10;;;;;;;17.32;72.87;99452.06;7369125;19;20014;-59
2023/09/18 08:59:13;;;;;;;0.10;0.10;;;;;;;17.35;72.13;99434.22;7367507;19;20048;-59
2023/09/18 09:01:39;;;;;;;0.00;0.00;;;;;;;17.66;71.77;99461.09;7371456;19;20015;-59
2023/09/18 09:04:05;;;;;;;0.10;0.10;;;;;;;17.77;71.00;99442.69;7369124;19;20014;-60
2023/09/18 09:06:30;;;;;;;0.10;0.10;;;;;;;18.02;71.71;99451.47;7364548;19;20409;-60
2023/09/18 09:08:55;;;;;;;0.10;0.10;;;;;;;18.14;69.81;99463.75;7371382;19;20007;-60
2023/09/18 09:11:21;;;;;;;0.10;0.10;;;;;;;18.31;69.55;99458.09;7370618;19;20025;-60
2023/09/18 09:13:46;;;;;;;0.10;0.10;;;;;;;18.46;68.82;99444.69;7367427;19;20450;-60
2023/09/18 09:16:13;;;;;;;0.10;0.10;;;;;;;18.58;68.92;99443.75;7368689;19;20031;-60
2023/09/18 09:18:50;;;;;;;0.00;0.00;;;;;;;18.80;70.00;99446.47;7365718;19;20501;-60
2023/09/18 09:21:16;;;;;;;0.10;0.10;;;;;;;18.80;68.06;99422.66;7370346;19;20695;-59
2023/09/18 09:23:53;;;;;;;0.10;0.10;;;;;;;19.11;68.29;99431.72;7367736;19;20102;-59
2023/09/18 09:26:20;;;;;;;0.10;0.10;;;;;;;19.28;67.62;99433.03;7367914;19;20002;-60
2023/09/18 09:28:46;;;;;;;;;;;;;;;19.60;72.58;99433.16;7366749;19;20014;-60
2023/09/18 09:31:30;;;;;;;0.10;0.10;;;;;;;19.74;68.84;99434.69;7367111;19;19926;-59
2023/09/18 09:33:56;;;;;;;0.10;0.10;;;;;;;19.87;65.28;99423.94;7372567;19;20097;-60
2023/09/18 09:36:22;;;;;;;0.10;0.10;;;;;;;19.94;64.12;99410.06;7372670;19;20045;-60
2023/09/18 09:38:49;;;;;;;0.10;0.10;;;;;;;20.14;64.32;99428.78;7367895;19;20015;-60
2023/09/18 09:41:15;;;;;;;0.10;0.10;;;;;;;20.34;63.51;99441.22;7362518;19;20382;-60
2023/09/18 09:43:43;;;;;;;0.10;0.10;;;;;;;20.52;63.10;99441.53;7366840;19;20014;-60
2023/09/18 09:46:17;;;;;;;0.10;0.10;;;;;;;20.72;64.15;99450.44;7364263;19;20028;-59
2023/09/18 09:48:59;;;;;;;0.10;0.10;;;;;;;20.87;65.63;99429.72;7369886;19;20014;-60
2023/09/18 09:51:24;;;;;;;0.10;0.10;;;;;;;20.88;61.11;99436.72;7366781;19;20010;-60
2023/09/18 09:53:51;;;;;;;0.10;0.10;;;;;;;21.00;61.24;99441.00;7344560;19;20343;-59
2023/09/18 09:56:21;;;;;;;0.00;0.00;;;;;;;21.16;59.56;99433.38;7370119;19;20017;-59
2023/09/18 09:59:08;;;;;;;0.10;0.10;;;;;;;21.43;63.91;99426.66;7369174;19;20122;-59
2023/09/18 10:01:35;;;;;;;0.10;0.10;;;;;;;21.50;57.79;99443.75;7369416;19;19998;-59
2023/09/18 10:04:08;;;;;;;0.20;0.20;;;;;;;21.62;60.79;99421.38;7371382;19;20018;-59
2023/09/18 10:06:36;;;;;;;0.10;0.10;;;;;;;21.81;57.65;99441.03;7367192;19;20011;-59
2023/09/18 10:09:07;;;;;;;0.10;0.10;;;;;;;22.03;58.81;99441.59;7368683;19;20022;-59
2023/09/18 10:11:37;;;;;;;0.08;0.08;;;;;;;22.14;56.17;99447.78;7367378;19;20014;-59
2023/09/18 10:14:10;;;;;;;0.00;0.00;;;;;;;22.34;59.48;99438.84;7370234;19;20113;-59
2023/09/18 10:16:38;;;;;;;0.10;0.10;;;;;;;22.47;54.82;99444.72;7366222;19;20011;-59
2023/09/18 10:19:11;;;;;;;0.10;0.10;;;;;;;22.64;56.32;99450.28;7374021;19;20019;-59
2023/09/18 10:21:55;;;;;;;0.10;0.10;;;;;;;22.83;58.10;99449.41;7363372;19;20014;-59
2023/09/18 10:24:30;;;;;;;0.10;0.10;;;;;;;22.95;56.72;99454.44;7368364;19;20028;-60
2023/09/18 10:26:58;;;;;;;0.10;0.10;;;;;;;22.92;52.10;99454.75;7368112;19;20021;-59
2023/09/18 10:29:24;;;;;;;;;;;;;;;23.04;59.61;99464.25;7369959;19;20805;-59
2023/09/18 10:31:53;;;;;;;0.10;0.10;;;;;;;22.85;52.95;99458.09;7368079;19;19943;-59
2023/09/18 10:34:20;;;;;;;0.10;0.10;;;;;;;22.80;52.23;99463.84;7367626;19;20054;-60
2023/09/18 10:36:49;;;;;;;0.10;0.10;;;;;;;22.84;52.26;99433.28;7365873;19;20014;-59
2023/09/18 10:39:19;;;;;;;0.10;0.10;;;;;;;22.90;53.04;99458.53;7365292;19;20015;-60
2023/09/18 10:41:48;;;;;;;0.10;0.10;;;;;;;22.97;51.30;99463.16;7362590;19;20011;-60
2023/09/18 10:44:15;;;;;;;0.10;0.10;;;;;;;23.10;51.34;99459.31;7366375;19;20033;-60
2023/09/18 10:46:41;;;;;;;0.10;0.10;;;;;;;23.26;51.51;99456.88;7363573;19;20035;-59
2023/09/18 10:49:06;;;;;;;0.10;0.10;;;;;;;23.41;51.58;99442.06;7368693;19;20014;-60
2023/09/18 10:51:33;;;;;;;0.10;0.10;;;;;;;23.60;51.10;99454.47;7360276;19;20017;-59
2023/09/18 10:53:59;;;;;;;0.10;0.10;;;;;;;23.70;48.65;99433.13;7367614;19;20105;-59
2023/09/18 10:56:26;;;;;;;0.15;0.15;;;;;;;24.00;48.69;99440.78;7366386;19;20015;-59
2023/09/18 10:58:59;;;;;;;0.10;0.10;;;;;;;24.26;51.95;99451.53;7362800;19;20025;-59
2023/09/18 11:01:27;;;;;;;0.10;0.10;;;;;;;24.34;49.19;99453.44;7364765;19;20779;-59
2023/09/18 11:03:53;;;;;;;0.10;0.10;;;;;;;24.50;46.11;99448.28;7367461;19;20018;-59
2023/09/18 11:06:21;;;;;;;0.10;0.10;;;;;;;24.66;48.23;99452.06;7366168;19;20018;-59
2023/09/18 11:08:49;;;;;;;0.10;0.10;;;;;;;24.85;46.08;99441.19;7365962;19;20039;-59
2023/09/18 11:11:20;;;;;;;0.10;0.10;;;;;;;25.12;46.32;99453.56;7361759;19;20111;-59
2023/09/18 11:13:49;;;;;;;0.00;0.00;;;;;;;25.33;45.23;99434.44;7365950;19;20014;-59
2023/09/18 11:16:32;;;;;;;0.10;0.10;;;;;;;25.52;45.38;99436.88;7363554;19;20022;-59
2023/09/18 11:18:58;;;;;;;0.10;0.10;;;;;;;25.67;44.37;99436.25;7369587;19;20082;-59
2023/09/18 11:21:25;;;;;;;0.10;0.10;;;;;;;25.90;44.30;99440.00;7366427;19;20077;-59
2023/09/18 11:24:05;;;;;;;0.10;0.10;;;;;;;26.10;46.79;99428.03;7367350;19;20434;-59
2023/09/18 11:26:52;;;;;;;0.10;0.10;;;;;;;26.46;46.94;99449.16;7362882;19;20014;-59
2023/09/18 11:29:22;;;;;;;0.00;0.00;;;;;;;26.54;42.94;99449.16;7366529;19;20346;-59
2023/09/18 11:31:53;;;;;;;0.10;0.10;;;;;;;26.67;41.86;99440.63;7365185;19;20018;-59
2023/09/18 11:34:36;;;;;;;0.10;0.10;;;;;;;26.79;42.70;99449.13;7366237;19;20700;-59